sensor_id;sensor_type;location;lat;lon;timestamp;temperature;humidity
68826;DHT22;55841;53.392;10.086;2022-07-01T00:01:20;23.00;64.70
68826;DHT22;55841;53.392;10.086;2022-07-01T00:03:45;22.90;67.50
68826;DHT22;55841;53.392;10.086;2022-07-01T00:06:11;22.60;70.70
68826;DHT22;55841;53.392;10.086;2022-07-01T00:08:36;22.30;72.70
68826;DHT22;55841;53.392;10.086;2022-07-01T00:11:02;21.90;75.10
68826;DHT22;55841;53.392;10.086;2022-07-01T00:13:27;21.60;76.80
68826;DHT22;55841;53.392;10.086;2022-07-01T00:15:53;21.30;78.90
68826;DHT22;55841;53.392;10.086;2022-07-01T00:18:18;21.10;80.60
68826;DHT22;55841;53.392;10.086;2022-07-01T00:20:44;21.00;81.80
68826;DHT22;55841;53.392;10.086;2022-07-01T00:23:09;20.90;83.20
68826;DHT22;55841;53.392;10.086;2022-07-01T00:25:35;20.80;83.90
68826;DHT22;55841;53.392;10.086;2022-07-01T00:28:00;20.60;85.30
68826;DHT22;55841;53.392;10.086;2022-07-01T00:30:26;20.40;86.30
68826;DHT22;55841;53.392;10.086;2022-07-01T00:32:51;20.30;85.30
68826;DHT22;55841;53.392;10.086;2022-07-01T00:35:17;20.20;86.60
68826;DHT22;55841;53.392;10.086;2022-07-01T00:37:42;20.10;86.40
68826;DHT22;55841;53.392;10.086;2022-07-01T00:40:08;20.10;87.70
68826;DHT22;55841;53.392;10.086;2022-07-01T00:42:38;20.10;87.60
68826;DHT22;55841;53.392;10.086;2022-07-01T00:45:05;20.10;87.30
68826;DHT22;55841;53.392;10.086;2022-07-01T00:47:31;20.10;87.40
68826;DHT22;55841;53.392;10.086;2022-07-01T00:49:56;20.20;87.60
68826;DHT22;55841;53.392;10.086;2022-07-01T00:52:22;20.30;87.50
68826;DHT22;55841;53.392;10.086;2022-07-01T00:54:47;20.40;86.60
68826;DHT22;55841;53.392;10.086;2022-07-01T00:57:13;20.40;86.70
68826;DHT22;55841;53.392;10.086;2022-07-01T00:59:39;20.40;87.10
68826;DHT22;55841;53.392;10.086;2022-07-01T01:02:06;20.40;87.10
68826;DHT22;55841;53.392;10.086;2022-07-01T01:04:32;20.40;86.50
68826;DHT22;55841;53.392;10.086;2022-07-01T01:06:57;20.40;86.20
68826;DHT22;55841;53.392;10.086;2022-07-01T01:09:24;20.30;86.40
68826;DHT22;55841;53.392;10.086;2022-07-01T01:11:49;20.30;86.30
68826;DHT22;55841;53.392;10.086;2022-07-01T01:14:15;20.30;86.40
68826;DHT22;55841;53.392;10.086;2022-07-01T01:16:41;20.30;86.30
68826;DHT22;55841;53.392;10.086;2022-07-01T01:19:06;20.30;85.80
68826;DHT22;55841;53.392;10.086;2022-07-01T01:21:33;20.20;85.30
68826;DHT22;55841;53.392;10.086;2022-07-01T01:23:59;20.20;85.20
68826;DHT22;55841;53.392;10.086;2022-07-01T01:26:24;20.20;85.60
68826;DHT22;55841;53.392;10.086;2022-07-01T01:28:50;20.20;85.40
68826;DHT22;55841;53.392;10.086;2022-07-01T01:31:15;20.20;85.50
68826;DHT22;55841;53.392;10.086;2022-07-01T01:33:41;20.20;85.20
68826;DHT22;55841;53.392;10.086;2022-07-01T01:36:07;20.20;84.80
68826;DHT22;55841;53.392;10.086;2022-07-01T01:38:36;20.10;85.40
68826;DHT22;55841;53.392;10.086;2022-07-01T01:41:05;20.00;86.00
68826;DHT22;55841;53.392;10.086;2022-07-01T01:43:31;20.00;86.00
68826;DHT22;55841;53.392;10.086;2022-07-01T01:45:57;20.00;86.00
68826;DHT22;55841;53.392;10.086;2022-07-01T01:48:22;20.00;85.90
68826;DHT22;55841;53.392;10.086;2022-07-01T01:50:48;20.00;85.90
68826;DHT22;55841;53.392;10.086;2022-07-01T01:53:13;20.00;85.70
68826;DHT22;55841;53.392;10.086;2022-07-01T01:55:39;20.00;86.30
68826;DHT22;55841;53.392;10.086;2022-07-01T01:58:04;20.10;86.30
68826;DHT22;55841;53.392;10.086;2022-07-01T02:00:30;20.10;86.30
68826;DHT22;55841;53.392;10.086;2022-07-01T02:02:55;20.10;86.30
68826;DHT22;55841;53.392;10.086;2022-07-01T02:05:21;20.10;86.50
68826;DHT22;55841;53.392;10.086;2022-07-01T02:07:46;20.10;86.40
68826;DHT22;55841;53.392;10.086;2022-07-01T02:10:12;20.10;86.30
68826;DHT22;55841;53.392;10.086;2022-07-01T02:12:37;20.10;86.70
68826;DHT22;55841;53.392;10.086;2022-07-01T02:15:03;20.10;86.50
68826;DHT22;55841;53.392;10.086;2022-07-01T02:17:29;20.10;86.80
68826;DHT22;55841;53.392;10.086;2022-07-01T02:19:55;20.10;86.40
68826;DHT22;55841;53.392;10.086;2022-07-01T02:22:20;20.10;87.00
68826;DHT22;55841;53.392;10.086;2022-07-01T02:24:46;20.10;87.10
68826;DHT22;55841;53.392;10.086;2022-07-01T02:27:12;20.10;87.10
68826;DHT22;55841;53.392;10.086;2022-07-01T02:29:38;20.00;87.30
68826;DHT22;55841;53.392;10.086;2022-07-01T02:32:04;20.00;87.40
68826;DHT22;55841;53.392;10.086;2022-07-01T02:34:29;20.00;87.90
68826;DHT22;55841;53.392;10.086;2022-07-01T02:36:55;19.90;88.10
68826;DHT22;55841;53.392;10.086;2022-07-01T02:39:21;19.90;88.50
68826;DHT22;55841;53.392;10.086;2022-07-01T02:41:47;19.90;88.70
68826;DHT22;55841;53.392;10.086;2022-07-01T02:44:12;19.90;88.30
68826;DHT22;55841;53.392;10.086;2022-07-01T02:46:38;20.00;88.10
68826;DHT22;55841;53.392;10.086;2022-07-01T02:49:03;19.90;88.30
68826;DHT22;55841;53.392;10.086;2022-07-01T02:51:29;19.90;88.20
68826;DHT22;55841;53.392;10.086;2022-07-01T02:53:54;19.90;88.50
68826;DHT22;55841;53.392;10.086;2022-07-01T02:56:20;20.00;88.60
68826;DHT22;55841;53.392;10.086;2022-07-01T02:58:45;19.90;88.60
68826;DHT22;55841;53.392;10.086;2022-07-01T03:01:10;20.00;88.60
68826;DHT22;55841;53.392;10.086;2022-07-01T03:03:36;20.00;88.60
68826;DHT22;55841;53.392;10.086;2022-07-01T03:06:02;20.00;88.60
68826;DHT22;55841;53.392;10.086;2022-07-01T03:08:27;20.00;88.40
68826;DHT22;55841;53.392;10.086;2022-07-01T03:10:52;19.90;88.50
68826;DHT22;55841;53.392;10.086;2022-07-01T03:13:18;19.90;88.90
68826;DHT22;55841;53.392;10.086;2022-07-01T03:15:43;19.90;89.20
68826;DHT22;55841;53.392;10.086;2022-07-01T03:18:09;20.00;89.10
68826;DHT22;55841;53.392;10.086;2022-07-01T03:20:34;20.00;89.20
68826;DHT22;55841;53.392;10.086;2022-07-01T03:23:00;20.10;88.70
68826;DHT22;55841;53.392;10.086;2022-07-01T03:25:25;20.00;88.20
68826;DHT22;55841;53.392;10.086;2022-07-01T03:27:51;20.00;88.10
68826;DHT22;55841;53.392;10.086;2022-07-01T03:30:17;20.00;88.20
68826;DHT22;55841;53.392;10.086;2022-07-01T03:32:42;20.00;87.80
68826;DHT22;55841;53.392;10.086;2022-07-01T03:35:08;20.00;88.10
68826;DHT22;55841;53.392;10.086;2022-07-01T03:37:34;20.00;88.50
68826;DHT22;55841;53.392;10.086;2022-07-01T03:39:59;20.00;88.70
68826;DHT22;55841;53.392;10.086;2022-07-01T03:42:25;20.00;88.90
68826;DHT22;55841;53.392;10.086;2022-07-01T03:44:50;20.00;88.60
68826;DHT22;55841;53.392;10.086;2022-07-01T03:47:16;20.00;88.20
68826;DHT22;55841;53.392;10.086;2022-07-01T03:49:41;19.90;88.60
68826;DHT22;55841;53.392;10.086;2022-07-01T03:52:07;20.00;89.00
68826;DHT22;55841;53.392;10.086;2022-07-01T03:54:32;20.00;89.10
68826;DHT22;55841;53.392;10.086;2022-07-01T03:57:01;20.00;89.10
68826;DHT22;55841;53.392;10.086;2022-07-01T03:59:27;20.10;89.00
68826;DHT22;55841;53.392;10.086;2022-07-01T04:01:54;20.10;88.90
68826;DHT22;55841;53.392;10.086;2022-07-01T04:04:20;20.10;88.70
68826;DHT22;55841;53.392;10.086;2022-07-01T04:06:47;20.10;89.20
68826;DHT22;55841;53.392;10.086;2022-07-01T04:09:14;20.10;89.00
68826;DHT22;55841;53.392;10.086;2022-07-01T04:11:41;20.00;88.80
68826;DHT22;55841;53.392;10.086;2022-07-01T04:14:09;20.00;88.90
68826;DHT22;55841;53.392;10.086;2022-07-01T04:16:35;19.90;89.20
68826;DHT22;55841;53.392;10.086;2022-07-01T04:19:00;19.80;88.90
68826;DHT22;55841;53.392;10.086;2022-07-01T04:21:26;19.70;89.40
68826;DHT22;55841;53.392;10.086;2022-07-01T04:23:52;19.70;89.70
68826;DHT22;55841;53.392;10.086;2022-07-01T04:26:17;19.60;89.30
68826;DHT22;55841;53.392;10.086;2022-07-01T04:28:43;19.60;89.50
68826;DHT22;55841;53.392;10.086;2022-07-01T04:31:08;19.60;89.30
68826;DHT22;55841;53.392;10.086;2022-07-01T04:33:34;19.60;88.90
68826;DHT22;55841;53.392;10.086;2022-07-01T04:35:59;19.50;89.00
68826;DHT22;55841;53.392;10.086;2022-07-01T04:38:25;19.50;89.10
68826;DHT22;55841;53.392;10.086;2022-07-01T04:40:51;19.40;88.50
68826;DHT22;55841;53.392;10.086;2022-07-01T04:43:16;19.30;89.20
68826;DHT22;55841;53.392;10.086;2022-07-01T04:45:42;19.30;89.40
68826;DHT22;55841;53.392;10.086;2022-07-01T04:48:07;19.30;89.70
68826;DHT22;55841;53.392;10.086;2022-07-01T04:50:33;19.20;88.50
68826;DHT22;55841;53.392;10.086;2022-07-01T04:52:58;19.00;88.80
68826;DHT22;55841;53.392;10.086;2022-07-01T04:55:23;18.90;88.60
68826;DHT22;55841;53.392;10.086;2022-07-01T04:57:49;18.80;88.80
68826;DHT22;55841;53.392;10.086;2022-07-01T05:00:15;18.70;88.90
68826;DHT22;55841;53.392;10.086;2022-07-01T05:02:40;18.60;89.30
68826;DHT22;55841;53.392;10.086;2022-07-01T05:05:06;18.60;89.30
68826;DHT22;55841;53.392;10.086;2022-07-01T05:07:32;18.60;89.20
68826;DHT22;55841;53.392;10.086;2022-07-01T05:09:57;18.50;89.00
68826;DHT22;55841;53.392;10.086;2022-07-01T05:12:23;18.40;89.40
68826;DHT22;55841;53.392;10.086;2022-07-01T05:14:49;18.30;88.90
68826;DHT22;55841;53.392;10.086;2022-07-01T05:17:15;18.30;89.80
68826;DHT22;55841;53.392;10.086;2022-07-01T05:19:41;18.30;89.70
68826;DHT22;55841;53.392;10.086;2022-07-01T05:22:06;18.20;88.90
68826;DHT22;55841;53.392;10.086;2022-07-01T05:24:32;18.20;88.30
68826;DHT22;55841;53.392;10.086;2022-07-01T05:26:58;18.10;88.90
68826;DHT22;55841;53.392;10.086;2022-07-01T05:29:24;18.10;89.20
68826;DHT22;55841;53.392;10.086;2022-07-01T05:31:50;18.10;89.00
68826;DHT22;55841;53.392;10.086;2022-07-01T05:34:15;18.00;89.30
68826;DHT22;55841;53.392;10.086;2022-07-01T05:36:41;18.10;90.00
68826;DHT22;55841;53.392;10.086;2022-07-01T05:39:06;18.10;89.20
68826;DHT22;55841;53.392;10.086;2022-07-01T05:41:32;18.00;89.80
68826;DHT22;55841;53.392;10.086;2022-07-01T05:43:57;18.00;89.40
68826;DHT22;55841;53.392;10.086;2022-07-01T05:46:23;17.90;89.30
68826;DHT22;55841;53.392;10.086;2022-07-01T05:48:49;17.80;89.90
68826;DHT22;55841;53.392;10.086;2022-07-01T05:51:14;17.70;90.00
68826;DHT22;55841;53.392;10.086;2022-07-01T05:53:40;17.70;90.30
68826;DHT22;55841;53.392;10.086;2022-07-01T05:56:05;17.70;90.80
68826;DHT22;55841;53.392;10.086;2022-07-01T05:58:35;17.70;90.60
68826;DHT22;55841;53.392;10.086;2022-07-01T06:01:04;17.70;90.60
68826;DHT22;55841;53.392;10.086;2022-07-01T06:03:29;17.70;89.10
68826;DHT22;55841;53.392;10.086;2022-07-01T06:05:57;17.60;89.30
68826;DHT22;55841;53.392;10.086;2022-07-01T06:08:23;17.60;89.60
68826;DHT22;55841;53.392;10.086;2022-07-01T06:25:43;17.50;89.90
68826;DHT22;55841;53.392;10.086;2022-07-01T06:32:15;17.40;90.00
68826;DHT22;55841;53.392;10.086;2022-07-01T06:34:55;17.40;89.50
68826;DHT22;55841;53.392;10.086;2022-07-01T06:37:29;17.30;89.80
68826;DHT22;55841;53.392;10.086;2022-07-01T06:47:00;17.20;90.50
68826;DHT22;55841;53.392;10.086;2022-07-01T06:49:37;17.30;90.80
68826;DHT22;55841;53.392;10.086;2022-07-01T07:33:04;17.00;87.90
68826;DHT22;55841;53.392;10.086;2022-07-01T07:35:31;17.00;89.10
68826;DHT22;55841;53.392;10.086;2022-07-01T07:37:56;17.00;88.70
68826;DHT22;55841;53.392;10.086;2022-07-01T07:40:22;17.00;88.60
68826;DHT22;55841;53.392;10.086;2022-07-01T07:42:53;17.00;88.60
68826;DHT22;55841;53.392;10.086;2022-07-01T07:45:20;17.00;88.60
68826;DHT22;55841;53.392;10.086;2022-07-01T07:51:07;16.90;87.60
68826;DHT22;55841;53.392;10.086;2022-07-01T07:53:33;16.90;87.10
68826;DHT22;55841;53.392;10.086;2022-07-01T07:56:08;17.00;87.80
68826;DHT22;55841;53.392;10.086;2022-07-01T07:58:40;17.00;87.70
68826;DHT22;55841;53.392;10.086;2022-07-01T08:01:13;17.00;87.80
68826;DHT22;55841;53.392;10.086;2022-07-01T08:03:41;17.10;86.10
68826;DHT22;55841;53.392;10.086;2022-07-01T08:06:10;17.10;86.00
68826;DHT22;55841;53.392;10.086;2022-07-01T08:08:36;17.10;87.10
68826;DHT22;55841;53.392;10.086;2022-07-01T08:11:04;17.20;87.80
68826;DHT22;55841;53.392;10.086;2022-07-01T08:13:30;17.20;86.50
68826;DHT22;55841;53.392;10.086;2022-07-01T08:15:56;17.20;85.90
68826;DHT22;55841;53.392;10.086;2022-07-01T08:18:22;17.30;86.70
68826;DHT22;55841;53.392;10.086;2022-07-01T08:21:05;17.30;86.30
68826;DHT22;55841;53.392;10.086;2022-07-01T08:23:31;17.40;85.90
68826;DHT22;55841;53.392;10.086;2022-07-01T08:25:57;17.40;86.50
68826;DHT22;55841;53.392;10.086;2022-07-01T08:35:14;17.50;83.80
68826;DHT22;55841;53.392;10.086;2022-07-01T08:37:40;17.60;85.60
68826;DHT22;55841;53.392;10.086;2022-07-01T08:40:54;17.60;84.30
68826;DHT22;55841;53.392;10.086;2022-07-01T08:47:10;17.80;83.40
68826;DHT22;55841;53.392;10.086;2022-07-01T08:50:17;17.80;81.90
68826;DHT22;55841;53.392;10.086;2022-07-01T08:53:04;17.70;83.50
68826;DHT22;55841;53.392;10.086;2022-07-01T08:55:30;17.80;84.40
68826;DHT22;55841;53.392;10.086;2022-07-01T08:57:56;17.70;83.40
68826;DHT22;55841;53.392;10.086;2022-07-01T09:00:28;17.70;84.10
68826;DHT22;55841;53.392;10.086;2022-07-01T09:17:43;17.60;84.00
68826;DHT22;55841;53.392;10.086;2022-07-01T09:24:46;17.70;84.70
68826;DHT22;55841;53.392;10.086;2022-07-01T09:27:07;17.60;82.80
68826;DHT22;55841;53.392;10.086;2022-07-01T09:29:53;17.50;83.50
68826;DHT22;55841;53.392;10.086;2022-07-01T09:32:26;17.40;84.30
68826;DHT22;55841;53.392;10.086;2022-07-01T09:35:26;17.30;83.70
68826;DHT22;55841;53.392;10.086;2022-07-01T09:39:10;17.40;84.70
68826;DHT22;55841;53.392;10.086;2022-07-01T10:00:14;17.30;84.40
68826;DHT22;55841;53.392;10.086;2022-07-01T10:02:46;17.20;84.40
68826;DHT22;55841;53.392;10.086;2022-07-01T10:05:14;17.20;84.20
68826;DHT22;55841;53.392;10.086;2022-07-01T10:13:24;17.30;85.70
68826;DHT22;55841;53.392;10.086;2022-07-01T10:15:54;17.20;86.10
68826;DHT22;55841;53.392;10.086;2022-07-01T10:21:59;17.20;86.50
68826;DHT22;55841;53.392;10.086;2022-07-01T10:28:27;17.40;84.60
68826;DHT22;55841;53.392;10.086;2022-07-01T10:31:00;17.40;84.60
68826;DHT22;55841;53.392;10.086;2022-07-01T10:33:50;17.30;85.10
68826;DHT22;55841;53.392;10.086;2022-07-01T10:41:27;17.10;86.00
68826;DHT22;55841;53.392;10.086;2022-07-01T10:44:03;17.10;86.50
68826;DHT22;55841;53.392;10.086;2022-07-01T10:47:05;17.10;86.40
68826;DHT22;55841;53.392;10.086;2022-07-01T10:52:26;17.10;84.70
68826;DHT22;55841;53.392;10.086;2022-07-01T10:54:56;17.20;85.70
68826;DHT22;55841;53.392;10.086;2022-07-01T10:57:25;17.20;85.90
68826;DHT22;55841;53.392;10.086;2022-07-01T11:02:46;17.40;85.80
68826;DHT22;55841;53.392;10.086;2022-07-01T11:05:19;17.50;86.40
68826;DHT22;55841;53.392;10.086;2022-07-01T11:07:47;17.60;85.00
68826;DHT22;55841;53.392;10.086;2022-07-01T11:10:15;17.70;85.40
68826;DHT22;55841;53.392;10.086;2022-07-01T11:12:41;17.70;84.60
68826;DHT22;55841;53.392;10.086;2022-07-01T11:15:07;17.90;84.30
68826;DHT22;55841;53.392;10.086;2022-07-01T11:17:42;18.00;85.20
68826;DHT22;55841;53.392;10.086;2022-07-01T11:20:09;18.20;81.70
68826;DHT22;55841;53.392;10.086;2022-07-01T11:22:35;18.20;82.60
68826;DHT22;55841;53.392;10.086;2022-07-01T11:25:14;18.30;83.20
68826;DHT22;55841;53.392;10.086;2022-07-01T11:27:51;18.20;82.40
68826;DHT22;55841;53.392;10.086;2022-07-01T11:30:18;18.10;81.70
68826;DHT22;55841;53.392;10.086;2022-07-01T11:32:57;18.10;81.80
68826;DHT22;55841;53.392;10.086;2022-07-01T11:36:06;18.10;80.80
68826;DHT22;55841;53.392;10.086;2022-07-01T11:38:58;18.10;81.80
68826;DHT22;55841;53.392;10.086;2022-07-01T11:41:47;18.00;81.40
68826;DHT22;55841;53.392;10.086;2022-07-01T11:44:13;18.00;81.60
68826;DHT22;55841;53.392;10.086;2022-07-01T11:46:51;18.00;81.10
68826;DHT22;55841;53.392;10.086;2022-07-01T11:49:29;17.90;81.20
68826;DHT22;55841;53.392;10.086;2022-07-01T11:54:47;18.00;82.40
68826;DHT22;55841;53.392;10.086;2022-07-01T11:59:48;18.10;81.30
68826;DHT22;55841;53.392;10.086;2022-07-01T12:02:27;18.20;81.60
68826;DHT22;55841;53.392;10.086;2022-07-01T12:08:48;18.10;79.90
68826;DHT22;55841;53.392;10.086;2022-07-01T12:11:31;18.10;80.30
68826;DHT22;55841;53.392;10.086;2022-07-01T12:14:00;18.10;79.90
68826;DHT22;55841;53.392;10.086;2022-07-01T12:16:27;18.00;80.60
68826;DHT22;55841;53.392;10.086;2022-07-01T12:19:01;18.20;81.70
68826;DHT22;55841;53.392;10.086;2022-07-01T12:22:02;18.20;80.50
68826;DHT22;55841;53.392;10.086;2022-07-01T12:24:31;18.30;80.60
68826;DHT22;55841;53.392;10.086;2022-07-01T12:29:25;18.60;81.40
68826;DHT22;55841;53.392;10.086;2022-07-01T12:32:12;18.80;80.30
68826;DHT22;55841;53.392;10.086;2022-07-01T12:37:45;19.20;79.00
68826;DHT22;55841;53.392;10.086;2022-07-01T12:40:23;19.40;78.40
68826;DHT22;55841;53.392;10.086;2022-07-01T12:42:55;19.60;76.40
68826;DHT22;55841;53.392;10.086;2022-07-01T12:45:24;19.60;76.10
68826;DHT22;55841;53.392;10.086;2022-07-01T12:47:53;19.70;74.10
68826;DHT22;55841;53.392;10.086;2022-07-01T12:50:20;19.70;74.80
68826;DHT22;55841;53.392;10.086;2022-07-01T12:53:10;19.90;75.80
68826;DHT22;55841;53.392;10.086;2022-07-01T12:58:07;20.10;71.60
68826;DHT22;55841;53.392;10.086;2022-07-01T13:00:34;20.10;70.60
68826;DHT22;55841;53.392;10.086;2022-07-01T13:03:01;20.10;71.80
68826;DHT22;55841;53.392;10.086;2022-07-01T13:05:29;20.30;71.20
68826;DHT22;55841;53.392;10.086;2022-07-01T13:07:55;20.30;68.80
68826;DHT22;55841;53.392;10.086;2022-07-01T13:10:28;20.30;71.50
68826;DHT22;55841;53.392;10.086;2022-07-01T13:12:56;20.50;66.70
68826;DHT22;55841;53.392;10.086;2022-07-01T13:15:23;20.40;68.70
68826;DHT22;55841;53.392;10.086;2022-07-01T13:17:49;20.40;67.60
68826;DHT22;55841;53.392;10.086;2022-07-01T13:20:17;20.60;67.90
68826;DHT22;55841;53.392;10.086;2022-07-01T13:22:43;21.20;67.80
68826;DHT22;55841;53.392;10.086;2022-07-01T13:25:09;21.60;63.50
68826;DHT22;55841;53.392;10.086;2022-07-01T13:27:36;21.50;62.80
68826;DHT22;55841;53.392;10.086;2022-07-01T13:30:04;21.20;64.70
68826;DHT22;55841;53.392;10.086;2022-07-01T13:32:30;21.30;65.70
68826;DHT22;55841;53.392;10.086;2022-07-01T13:34:55;21.40;63.40
68826;DHT22;55841;53.392;10.086;2022-07-01T13:37:21;21.40;65.80
68826;DHT22;55841;53.392;10.086;2022-07-01T13:39:46;21.70;63.90
68826;DHT22;55841;53.392;10.086;2022-07-01T13:42:12;21.90;63.20
68826;DHT22;55841;53.392;10.086;2022-07-01T13:44:38;21.90;63.80
68826;DHT22;55841;53.392;10.086;2022-07-01T13:47:04;21.80;64.10
68826;DHT22;55841;53.392;10.086;2022-07-01T13:49:29;21.90;62.00
68826;DHT22;55841;53.392;10.086;2022-07-01T13:51:55;21.50;63.50
68826;DHT22;55841;53.392;10.086;2022-07-01T13:54:20;21.20;61.80
68826;DHT22;55841;53.392;10.086;2022-07-01T13:56:46;21.00;65.50
68826;DHT22;55841;53.392;10.086;2022-07-01T13:59:12;21.10;66.40
68826;DHT22;55841;53.392;10.086;2022-07-01T14:01:38;21.30;65.70
68826;DHT22;55841;53.392;10.086;2022-07-01T14:04:04;21.60;64.50
68826;DHT22;55841;53.392;10.086;2022-07-01T14:06:30;21.80;61.10
68826;DHT22;55841;53.392;10.086;2022-07-01T14:08:56;22.10;63.20
68826;DHT22;55841;53.392;10.086;2022-07-01T14:11:22;22.10;60.50
68826;DHT22;55841;53.392;10.086;2022-07-01T14:13:48;21.80;61.20
68826;DHT22;55841;53.392;10.086;2022-07-01T14:16:14;21.60;63.70
68826;DHT22;55841;53.392;10.086;2022-07-01T14:18:39;21.50;61.50
68826;DHT22;55841;53.392;10.086;2022-07-01T14:21:05;21.30;62.60
68826;DHT22;55841;53.392;10.086;2022-07-01T14:23:31;21.10;65.50
68826;DHT22;55841;53.392;10.086;2022-07-01T14:25:57;20.80;60.90
68826;DHT22;55841;53.392;10.086;2022-07-01T14:28:22;20.50;62.80
68826;DHT22;55841;53.392;10.086;2022-07-01T14:30:48;20.20;65.20
68826;DHT22;55841;53.392;10.086;2022-07-01T14:33:13;20.00;64.00
68826;DHT22;55841;53.392;10.086;2022-07-01T14:35:39;20.00;66.30
68826;DHT22;55841;53.392;10.086;2022-07-01T14:38:05;19.90;64.10
68826;DHT22;55841;53.392;10.086;2022-07-01T14:40:31;19.60;63.90
68826;DHT22;55841;53.392;10.086;2022-07-01T14:42:57;19.50;64.80
68826;DHT22;55841;53.392;10.086;2022-07-01T14:45:22;19.40;64.30
68826;DHT22;55841;53.392;10.086;2022-07-01T14:47:48;19.40;65.50
68826;DHT22;55841;53.392;10.086;2022-07-01T14:50:13;19.30;65.90
68826;DHT22;55841;53.392;10.086;2022-07-01T14:52:39;19.30;66.30
68826;DHT22;55841;53.392;10.086;2022-07-01T14:55:05;19.30;67.80
68826;DHT22;55841;53.392;10.086;2022-07-01T14:57:31;19.30;66.30
68826;DHT22;55841;53.392;10.086;2022-07-01T14:59:56;19.30;66.30
68826;DHT22;55841;53.392;10.086;2022-07-01T15:02:22;19.20;67.10
68826;DHT22;55841;53.392;10.086;2022-07-01T15:04:48;19.20;67.40
68826;DHT22;55841;53.392;10.086;2022-07-01T15:07:13;19.20;67.30
68826;DHT22;55841;53.392;10.086;2022-07-01T15:09:40;19.30;69.50
68826;DHT22;55841;53.392;10.086;2022-07-01T15:12:06;19.40;68.30
68826;DHT22;55841;53.392;10.086;2022-07-01T15:14:32;19.50;69.50
68826;DHT22;55841;53.392;10.086;2022-07-01T15:16:57;19.70;67.60
68826;DHT22;55841;53.392;10.086;2022-07-01T15:19:23;19.70;67.80
68826;DHT22;55841;53.392;10.086;2022-07-01T15:21:49;19.80;65.50
68826;DHT22;55841;53.392;10.086;2022-07-01T15:24:14;19.90;66.10
68826;DHT22;55841;53.392;10.086;2022-07-01T15:26:40;19.90;67.50
68826;DHT22;55841;53.392;10.086;2022-07-01T15:29:05;20.00;67.40
68826;DHT22;55841;53.392;10.086;2022-07-01T15:31:31;20.00;67.70
68826;DHT22;55841;53.392;10.086;2022-07-01T15:33:56;20.00;68.70
68826;DHT22;55841;53.392;10.086;2022-07-01T15:36:22;20.00;68.10
68826;DHT22;55841;53.392;10.086;2022-07-01T15:38:47;20.00;68.30
68826;DHT22;55841;53.392;10.086;2022-07-01T15:41:13;20.00;68.00
68826;DHT22;55841;53.392;10.086;2022-07-01T15:43:40;20.00;69.00
68826;DHT22;55841;53.392;10.086;2022-07-01T15:46:06;20.10;69.20
68826;DHT22;55841;53.392;10.086;2022-07-01T15:48:32;20.10;67.80
68826;DHT22;55841;53.392;10.086;2022-07-01T15:50:58;20.10;68.20
68826;DHT22;55841;53.392;10.086;2022-07-01T15:53:23;20.20;68.00
68826;DHT22;55841;53.392;10.086;2022-07-01T15:55:50;20.20;66.40
68826;DHT22;55841;53.392;10.086;2022-07-01T15:58:18;20.20;68.10
68826;DHT22;55841;53.392;10.086;2022-07-01T16:00:47;20.20;68.20
68826;DHT22;55841;53.392;10.086;2022-07-01T16:03:15;20.20;68.00
68826;DHT22;55841;53.392;10.086;2022-07-01T16:05:47;20.20;68.00
68826;DHT22;55841;53.392;10.086;2022-07-01T16:08:19;20.10;68.00
68826;DHT22;55841;53.392;10.086;2022-07-01T16:10:53;20.10;68.10
68826;DHT22;55841;53.392;10.086;2022-07-01T16:13:28;20.10;67.60
68826;DHT22;55841;53.392;10.086;2022-07-01T16:15:58;20.00;67.70
68826;DHT22;55841;53.392;10.086;2022-07-01T16:18:42;19.90;67.80
68826;DHT22;55841;53.392;10.086;2022-07-01T16:21:09;19.80;67.80
68826;DHT22;55841;53.392;10.086;2022-07-01T16:23:36;19.80;67.80
68826;DHT22;55841;53.392;10.086;2022-07-01T16:26:02;19.80;68.80
68826;DHT22;55841;53.392;10.086;2022-07-01T16:28:28;19.90;69.00
68826;DHT22;55841;53.392;10.086;2022-07-01T16:30:54;20.10;69.50
68826;DHT22;55841;53.392;10.086;2022-07-01T16:33:21;20.20;68.60
68826;DHT22;55841;53.392;10.086;2022-07-01T16:36:05;20.20;66.50
68826;DHT22;55841;53.392;10.086;2022-07-01T16:38:43;20.20;67.10
68826;DHT22;55841;53.392;10.086;2022-07-01T16:41:22;20.20;67.10
68826;DHT22;55841;53.392;10.086;2022-07-01T16:43:54;20.20;66.60
68826;DHT22;55841;53.392;10.086;2022-07-01T16:46:21;20.10;67.90
68826;DHT22;55841;53.392;10.086;2022-07-01T16:48:49;20.10;69.60
68826;DHT22;55841;53.392;10.086;2022-07-01T16:51:20;20.10;68.90
68826;DHT22;55841;53.392;10.086;2022-07-01T16:53:46;20.10;69.70
68826;DHT22;55841;53.392;10.086;2022-07-01T16:56:23;20.10;68.70
68826;DHT22;55841;53.392;10.086;2022-07-01T16:59:00;20.10;68.70
68826;DHT22;55841;53.392;10.086;2022-07-01T17:01:27;20.20;68.50
68826;DHT22;55841;53.392;10.086;2022-07-01T17:04:02;20.20;68.40
68826;DHT22;55841;53.392;10.086;2022-07-01T17:06:30;20.00;69.40
68826;DHT22;55841;53.392;10.086;2022-07-01T17:08:56;20.00;69.30
68826;DHT22;55841;53.392;10.086;2022-07-01T17:11:24;20.00;69.40
68826;DHT22;55841;53.392;10.086;2022-07-01T17:13:51;20.10;69.90
68826;DHT22;55841;53.392;10.086;2022-07-01T17:16:16;20.10;69.50
68826;DHT22;55841;53.392;10.086;2022-07-01T17:18:46;20.10;69.70
68826;DHT22;55841;53.392;10.086;2022-07-01T17:21:14;20.10;69.70
68826;DHT22;55841;53.392;10.086;2022-07-01T17:24:00;20.10;69.30
68826;DHT22;55841;53.392;10.086;2022-07-01T17:26:31;20.20;69.20
68826;DHT22;55841;53.392;10.086;2022-07-01T17:29:19;20.20;69.90
68826;DHT22;55841;53.392;10.086;2022-07-01T17:32:05;20.50;68.70
68826;DHT22;55841;53.392;10.086;2022-07-01T17:34:31;21.20;67.00
68826;DHT22;55841;53.392;10.086;2022-07-01T17:36:59;21.60;63.90
68826;DHT22;55841;53.392;10.086;2022-07-01T17:39:30;22.50;61.60
68826;DHT22;55841;53.392;10.086;2022-07-01T17:41:59;23.40;59.30
68826;DHT22;55841;53.392;10.086;2022-07-01T17:44:26;24.30;56.40
68826;DHT22;55841;53.392;10.086;2022-07-01T17:46:52;24.90;54.60
68826;DHT22;55841;53.392;10.086;2022-07-01T17:49:18;25.20;53.20
68826;DHT22;55841;53.392;10.086;2022-07-01T17:51:44;25.30;51.50
68826;DHT22;55841;53.392;10.086;2022-07-01T17:54:14;25.60;51.90
68826;DHT22;55841;53.392;10.086;2022-07-01T17:56:41;25.70;50.80
68826;DHT22;55841;53.392;10.086;2022-07-01T17:59:06;25.50;48.90
68826;DHT22;55841;53.392;10.086;2022-07-01T18:01:32;25.40;49.80
68826;DHT22;55841;53.392;10.086;2022-07-01T18:04:00;25.20;50.30